Time;durP1;ratioP1;P1;durP2;ratioP2;P2;SDS_P1;SDS_P2;PMS_P1;PMS_P2;Temp;Humidity;BMP_temperature;BMP_pressure;BME280_temperature;BME280_humidity;BME280_pressure;Samples;Min_cycle;Max_cycle;Signal;HPM_P1;HPM_P2
2023/12/28 00:02:19;;;;;;;0.50;0.50;;;;;;;5.56;95.10;99021.44;5089605;28;20707;-59
2023/12/28 00:04:46;;;;;;;0.30;0.30;;;;;;;5.66;93.22;99019.13;5094450;28;20138;-58
2023/12/28 00:07:15;;;;;;;0.30;0.30;;;;;;;5.69;91.99;99026.69;5081403;28;20168;-59
2023/12/28 00:09:42;;;;;;;0.40;0.40;;;;;;;5.78;91.63;99013.94;5101226;28;20043;-59
2023/12/28 00:12:09;;;;;;;0.40;0.40;;;;;;;5.78;90.57;99014.75;5096118;28;20067;-58
2023/12/28 00:14:37;;;;;;;0.40;0.40;;;;;;;5.80;90.48;99022.50;5090401;28;21010;-58
2023/12/28 00:17:04;;;;;;;0.40;0.40;;;;;;;5.78;90.76;99021.91;5091588;28;20054;-59
2023/12/28 00:19:31;;;;;;;0.35;0.35;;;;;;;5.91;88.81;99019.13;5096974;28;20077;-59
2023/12/28 00:21:59;;;;;;;0.50;0.50;;;;;;;5.99;88.73;99013.59;5093936;28;20176;-58
2023/12/28 00:24:26;;;;;;;0.50;0.50;;;;;;;5.98;88.85;99029.78;5089367;28;20048;-59
2023/12/28 00:26:53;;;;;;;0.40;0.40;;;;;;;6.02;87.83;99033.63;5094003;28;20135;-58
2023/12/28 00:29:20;;;;;;;0.40;0.40;;;;;;;6.02;89.07;99046.94;5094063;28;20051;-59
2023/12/28 00:31:49;;;;;;;0.40;0.40;;;;;;;6.02;88.73;99049.59;5095565;28;20212;-59
2023/12/28 00:34:17;;;;;;;0.40;0.40;;;;;;;5.99;89.91;99073.94;5094028;28;20040;-59
2023/12/28 00:36:44;;;;;;;0.30;0.30;;;;;;;6.02;88.97;99079.66;5093499;28;20067;-59
2023/12/28 00:39:11;;;;;;;0.40;0.40;;;;;;;6.11;89.42;99082.06;5095143;28;20051;-59
2023/12/28 00:41:38;;;;;;;0.35;0.35;;;;;;;6.19;87.31;99074.63;5082742;28;20572;-59
2023/12/28 00:44:09;;;;;;;0.40;0.40;;;;;;;6.17;87.01;99079.34;5090166;28;20099;-58
2023/12/28 00:46:36;;;;;;;0.40;0.40;;;;;;;6.24;87.43;99081.94;5090244;28;20206;-59
2023/12/28 00:49:04;;;;;;;0.35;0.35;;;;;;;6.33;87.99;99079.84;5093535;28;20440;-59
2023/12/28 00:51:31;;;;;;;0.45;0.45;;;;;;;6.55;88.01;99085.56;5069650;28;20051;-59
2023/12/28 00:53:58;;;;;;;0.40;0.40;;;;;;;6.66;88.59;99099.00;5094205;28;20139;-59
2023/12/28 00:56:25;;;;;;;0.30;0.30;;;;;;;6.70;88.91;99097.50;5091041;28;20123;-58
2023/12/28 00:58:52;;;;;;;0.30;0.30;;;;;;;6.83;89.25;99095.75;5074821;28;20470;-59
2023/12/28 01:01:19;;;;;;;0.40;0.40;;;;;;;6.88;89.69;99106.53;5092810;28;20044;-59
2023/12/28 01:03:46;;;;;;;0.30;0.30;;;;;;;6.90;88.99;99113.28;5074052;28;20048;-59
2023/12/28 01:06:15;;;;;;;0.40;0.40;;;;;;;6.89;90.57;99110.84;5086313;28;20036;-59
2023/12/28 01:08:42;;;;;;;0.28;0.28;;;;;;;6.91;90.91;99114.09;5090751;28;20140;-59
2023/12/28 01:11:09;;;;;;;0.30;0.30;;;;;;;6.93;88.62;99101.38;5091533;28;20433;-59
2023/12/28 01:13:36;;;;;;;0.30;0.30;;;;;;;6.96;88.70;99122.22;5093935;28;20040;-59
2023/12/28 01:16:04;;;;;;;0.20;0.20;;;;;;;6.95;88.32;99131.28;5074475;28;20474;-58
2023/12/28 01:18:31;;;;;;;0.30;0.30;;;;;;;7.05;88.33;99128.91;5079980;28;20426;-59
2023/12/28 01:20:58;;;;;;;0.30;0.30;;;;;;;6.93;88.71;99149.31;5075561;28;20105;-59
2023/12/28 01:23:26;;;;;;;0.30;0.30;;;;;;;7.03;88.59;99146.97;5095000;28;20071;-59
2023/12/28 01:25:53;;;;;;;0.32;0.32;;;;;;;6.98;89.14;99136.16;5091318;28;20456;-59
2023/12/28 01:28:20;;;;;;;0.30;0.30;;;;;;;6.98;89.86;99138.00;5087855;28;20134;-58
2023/12/28 01:30:47;;;;;;;0.40;0.40;;;;;;;6.97;90.54;99139.06;5094132;28;20131;-58
2023/12/28 01:33:14;;;;;;;0.30;0.30;;;;;;;6.96;92.76;99167.53;5067182;28;20131;-58
2023/12/28 01:35:42;;;;;;;0.30;0.30;;;;;;;6.95;93.98;99171.25;5076684;28;20489;-58
2023/12/28 01:38:10;;;;;;;0.40;0.40;;;;;;;6.98;96.44;99168.13;5085997;28;20052;-58
2023/12/28 01:40:38;;;;;;;0.40;0.40;;;;;;;6.93;97.96;99169.84;5068077;28;20493;-58
2023/12/28 01:43:05;;;;;;;0.28;0.28;;;;;;;6.87;99.79;99176.88;5068564;28;20131;-58
2023/12/28 01:45:32;;;;;;;0.40;0.40;;;;;;;6.87;100.00;99188.31;5093898;28;20541;-58
2023/12/28 01:47:59;;;;;;;0.30;0.30;;;;;;;6.85;100.00;99178.91;5075369;28;20043;-58
2023/12/28 01:50:27;;;;;;;0.40;0.40;;;;;;;6.84;100.00;99198.59;5093266;28;20330;-58
2023/12/28 01:52:53;;;;;;;0.32;0.32;;;;;;;6.86;100.00;99185.88;5075547;28;20124;-58
2023/12/28 01:55:21;;;;;;;0.40;0.40;;;;;;;6.76;100.00;99193.53;5088184;28;20658;-58
2023/12/28 01:57:50;;;;;;;0.30;0.30;;;;;;;6.74;100.00;99192.94;5089941;28;20047;-58
2023/12/28 02:00:18;;;;;;;0.30;0.30;;;;;;;6.70;100.00;99198.72;5072309;28;20101;-58
2023/12/28 02:02:47;;;;;;;0.50;0.50;;;;;;;6.63;100.00;99181.16;5071975;28;20649;-58
2023/12/28 02:05:14;;;;;;;0.37;0.37;;;;;;;6.63;100.00;99171.31;5072632;28;20153;-58
2023/12/28 02:07:41;;;;;;;0.30;0.30;;;;;;;6.61;100.00;99172.56;5090393;28;20984;-58
2023/12/28 02:10:08;;;;;;;0.30;0.30;;;;;;;6.54;100.00;99161.16;5094764;28;20499;-58
2023/12/28 02:12:35;;;;;;;0.40;0.40;;;;;;;6.52;100.00;99168.56;5077742;28;20031;-58
2023/12/28 02:15:05;;;;;;;0.40;0.40;;;;;;;6.47;100.00;99172.69;5074663;28;20764;-58
2023/12/28 02:17:35;;;;;;;0.40;0.40;;;;;;;6.46;100.00;99176.41;5076879;28;20048;-58
2023/12/28 02:20:05;;;;;;;0.28;0.28;;;;;;;6.49;100.00;99185.78;5092054;28;20507;-58
2023/12/28 02:22:32;;;;;;;0.30;0.30;;;;;;;6.39;100.00;99180.94;5088613;28;20047;-58
2023/12/28 02:25:05;;;;;;;0.40;0.40;;;;;;;6.44;100.00;99188.25;5096193;28;20043;-58
2023/12/28 02:27:31;;;;;;;0.40;0.40;;;;;;;6.46;100.00;99192.38;5097171;28;20050;-58
2023/12/28 02:29:59;;;;;;;0.40;0.40;;;;;;;6.44;100.00;99190.94;5088383;28;20039;-58
2023/12/28 02:32:34;;;;;;;0.40;0.40;;;;;;;6.52;100.00;99198.66;5091856;28;20131;-58
2023/12/28 02:35:05;;;;;;;0.35;0.35;;;;;;;6.40;100.00;99205.72;5087598;28;20071;-59
2023/12/28 02:37:32;;;;;;;0.30;0.30;;;;;;;6.46;100.00;99199.50;5069008;28;20063;-58
2023/12/28 02:39:59;;;;;;;0.40;0.40;;;;;;;6.43;100.00;99207.94;5074176;28;20036;-58
2023/12/28 02:42:29;;;;;;;0.40;0.40;;;;;;;6.43;100.00;99199.97;5095569;28;20772;-58
2023/12/28 02:44:56;;;;;;;0.32;0.32;;;;;;;6.42;100.00;99191.16;5089134;28;20070;-58
2023/12/28 02:47:23;;;;;;;0.40;0.40;;;;;;;6.45;100.00;99206.69;5093521;28;20040;-58
2023/12/28 02:49:50;;;;;;;0.30;0.30;;;;;;;6.51;100.00;99199.69;5065079;28;20131;-59
2023/12/28 02:52:17;;;;;;;0.30;0.30;;;;;;;6.42;100.00;99195.69;5064247;28;20134;-58
2023/12/28 02:54:44;;;;;;;0.35;0.35;;;;;;;6.43;100.00;99192.78;5096213;28;20272;-58
2023/12/28 02:57:11;;;;;;;0.40;0.40;;;;;;;6.51;100.00;99191.69;5090090;28;20048;-58
2023/12/28 02:59:39;;;;;;;0.45;0.45;;;;;;;6.42;100.00;99187.69;5092827;28;20590;-58
2023/12/28 03:02:06;;;;;;;0.40;0.40;;;;;;;6.42;100.00;99190.34;5095194;28;20043;-58
2023/12/28 03:04:33;;;;;;;0.30;0.30;;;;;;;6.41;100.00;99194.03;5089482;28;20058;-58
2023/12/28 03:07:01;;;;;;;0.30;0.30;;;;;;;6.46;100.00;99191.53;5089147;28;20055;-58
2023/12/28 03:09:28;;;;;;;0.30;0.30;;;;;;;6.40;100.00;99187.09;5093124;28;20408;-58
2023/12/28 03:11:55;;;;;;;0.30;0.30;;;;;;;6.42;100.00;99203.66;5087940;28;20523;-58
2023/12/28 03:14:22;;;;;;;0.40;0.40;;;;;;;6.35;100.00;99194.91;5088908;28;20127;-58
2023/12/28 03:16:51;;;;;;;0.30;0.30;;;;;;;6.36;100.00;99191.19;5087809;28;20052;-58
2023/12/28 03:19:18;;;;;;;0.35;0.35;;;;;;;6.33;100.00;99187.13;5090021;28;20071;-58
2023/12/28 03:21:46;;;;;;;0.30;0.30;;;;;;;6.30;100.00;99192.88;5073249;28;20051;-59
2023/12/28 03:24:13;;;;;;;0.40;0.40;;;;;;;6.28;100.00;99205.59;5084182;28;20056;-58
2023/12/28 03:26:40;;;;;;;0.38;0.38;;;;;;;6.33;100.00;99192.44;5080595;28;20164;-58
2023/12/28 03:29:07;;;;;;;0.38;0.38;;;;;;;6.29;100.00;99185.94;5080628;28;20416;-58
2023/12/28 03:31:34;;;;;;;0.40;0.40;;;;;;;6.31;100.00;99175.06;5095559;28;20322;-58
2023/12/28 03:34:03;;;;;;;0.30;0.30;;;;;;;6.28;100.00;99172.84;5094396;28;20194;-58
2023/12/28 03:36:30;;;;;;;0.40;0.40;;;;;;;6.31;100.00;99180.38;5072297;28;20102;-58
2023/12/28 03:38:57;;;;;;;0.28;0.28;;;;;;;6.34;100.00;99183.44;5081545;28;20043;-58
2023/12/28 03:41:25;;;;;;;0.30;0.30;;;;;;;6.31;100.00;99193.69;5087376;28;20052;-58
2023/12/28 03:43:52;;;;;;;0.30;0.30;;;;;;;6.27;100.00;99188.00;5098798;28;20054;-58
2023/12/28 03:46:20;;;;;;;0.40;0.40;;;;;;;6.34;100.00;99193.25;5076708;28;20044;-58
2023/12/28 03:48:47;;;;;;;0.40;0.40;;;;;;;6.31;100.00;99188.38;5083791;28;20046;-58
2023/12/28 03:51:16;;;;;;;0.35;0.35;;;;;;;6.32;100.00;99195.34;5088967;28;20070;-58
2023/12/28 03:53:43;;;;;;;0.40;0.40;;;;;;;6.34;100.00;99193.25;5080146;28;20202;-58
2023/12/28 03:56:19;;;;;;;0.30;0.30;;;;;;;6.33;100.00;99196.97;5095010;28;20071;-58
2023/12/28 03:58:46;;;;;;;0.40;0.40;;;;;;;6.33;100.00;99191.63;5089421;28;20070;-58
2023/12/28 04:01:13;;;;;;;0.40;0.40;;;;;;;6.38;100.00;99197.13;5085842;28;20036;-58
2023/12/28 04:03:45;;;;;;;0.30;0.30;;;;;;;6.41;100.00;99178.06;5097514;28;20054;-58
2023/12/28 04:06:13;;;;;;;0.40;0.40;;;;;;;6.39;100.00;99180.09;5097955;28;20051;-58
2023/12/28 04:08:41;;;;;;;0.30;0.30;;;;;;;6.36;100.00;99180.53;5091488;28;20044;-58
2023/12/28 04:11:09;;;;;;;0.35;0.35;;;;;;;6.29;100.00;99179.78;5062258;28;20099;-58
2023/12/28 04:13:36;;;;;;;0.25;0.25;;;;;;;6.37;100.00;99166.22;5059382;28;20129;-58
2023/12/28 04:16:03;;;;;;;0.32;0.32;;;;;;;6.26;100.00;99175.69;5057599;28;20071;-58
2023/12/28 04:18:30;;;;;;;0.40;0.40;;;;;;;6.29;100.00;99171.78;5060613;28;20159;-58
2023/12/28 04:20:57;;;;;;;0.40;0.40;;;;;;;6.28;100.00;99175.50;5053064;28;20553;-58
2023/12/28 04:23:24;;;;;;;0.20;0.20;;;;;;;6.35;100.00;99181.59;5058056;28;20481;-58
2023/12/28 04:25:53;;;;;;;0.40;0.40;;;;;;;6.29;100.00;99180.63;5054685;28;20059;-58
2023/12/28 04:28:20;;;;;;;0.30;0.30;;;;;;;6.37;100.00;99176.88;5053652;28;20052;-58
2023/12/28 04:30:47;;;;;;;0.30;0.30;;;;;;;6.43;100.00;99176.00;5054254;28;20044;-58
2023/12/28 04:33:14;;;;;;;0.20;0.20;;;;;;;6.41;100.00;99172.72;5055617;28;20068;-58
2023/12/28 04:35:43;;;;;;;0.30;0.30;;;;;;;6.40;100.00;99165.78;5050338;28;20064;-58
2023/12/28 04:38:10;;;;;;;0.30;0.30;;;;;;;6.45;100.00;99180.06;5053792;28;20041;-58
2023/12/28 04:40:36;;;;;;;0.43;0.43;;;;;;;6.50;100.00;99182.09;5074333;28;20068;-58
2023/12/28 04:43:04;;;;;;;0.38;0.38;;;;;;;6.51;100.00;99177.56;5051453;28;20531;-58
2023/12/28 04:45:31;;;;;;;0.40;0.40;;;;;;;6.50;100.00;99181.28;5053945;28;20082;-58
2023/12/28 04:47:58;;;;;;;0.30;0.30;;;;;;;6.57;100.00;99179.38;5060205;28;20431;-58
2023/12/28 04:50:25;;;;;;;0.30;0.30;;;;;;;6.62;100.00;99172.38;5052402;28;20515;-58
2023/12/28 04:52:52;;;;;;;0.30;0.30;;;;;;;6.70;100.00;99171.28;5054951;28;20045;-58
2023/12/28 04:55:20;;;;;;;0.40;0.40;;;;;;;6.64;100.00;99161.47;5056920;28;20054;-58
2023/12/28 04:57:47;;;;;;;0.40;0.40;;;;;;;6.69;100.00;99162.47;5057569;28;20388;-58
2023/12/28 05:00:16;;;;;;;0.38;0.38;;;;;;;6.74;100.00;99151.16;5059375;28;20065;-58
2023/12/28 05:02:43;;;;;;;0.40;0.40;;;;;;;6.74;100.00;99156.50;5057711;28;20358;-58
2023/12/28 05:05:12;;;;;;;0.30;0.30;;;;;;;6.73;100.00;99146.03;5047269;28;20063;-58
2023/12/28 05:07:39;;;;;;;0.38;0.38;;;;;;;6.82;100.00;99158.88;5055931;28;20061;-58
2023/12/28 05:10:08;;;;;;;0.30;0.30;;;;;;;6.80;100.00;99154.78;5070425;28;20051;-58
2023/12/28 05:12:35;;;;;;;0.35;0.35;;;;;;;6.87;100.00;99160.88;5066113;28;20044;-58
2023/12/28 05:15:02;;;;;;;0.30;0.30;;;;;;;6.89;100.00;99158.81;5087465;28;20401;-59
2023/12/28 05:17:31;;;;;;;0.40;0.40;;;;;;;6.94;100.00;99150.97;5094443;28;20126;-58
2023/12/28 05:19:58;;;;;;;0.40;0.40;;;;;;;6.93;100.00;99144.00;5094663;28;20500;-58
2023/12/28 05:22:25;;;;;;;0.43;0.43;;;;;;;7.00;100.00;99150.06;5088017;28;20622;-58
2023/12/28 05:24:52;;;;;;;0.40;0.40;;;;;;;7.03;100.00;99154.16;5094270;28;20135;-58
2023/12/28 05:27:19;;;;;;;0.30;0.30;;;;;;;7.07;100.00;99150.81;5089842;28;20498;-58
2023/12/28 05:29:46;;;;;;;0.40;0.40;;;;;;;6.98;100.00;99157.47;5093094;28;20553;-58
2023/12/28 05:32:13;;;;;;;0.30;0.30;;;;;;;7.01;100.00;99154.34;5094021;28;20520;-58
2023/12/28 05:34:41;;;;;;;0.32;0.32;;;;;;;7.06;100.00;99156.38;5072570;28;20044;-58
2023/12/28 05:37:10;;;;;;;0.30;0.30;;;;;;;7.13;100.00;99157.13;5097579;28;20101;-58
2023/12/28 05:39:37;;;;;;;0.30;0.30;;;;;;;7.06;100.00;99165.19;5088609;28;20052;-58
2023/12/28 05:42:04;;;;;;;0.30;0.30;;;;;;;7.08;100.00;99173.75;5075411;28;20112;-58
2023/12/28 05:44:31;;;;;;;0.30;0.30;;;;;;;7.12;100.00;99182.16;5083397;28;20032;-58
2023/12/28 05:46:58;;;;;;;0.30;0.30;;;;;;;7.15;100.00;99156.91;5092854;28;20489;-58
2023/12/28 05:49:25;;;;;;;0.30;0.30;;;;;;;7.13;100.00;99165.91;5090906;28;20040;-58
2023/12/28 05:51:54;;;;;;;0.30;0.30;;;;;;;7.16;100.00;99162.00;5096207;28;20126;-58
2023/12/28 05:54:21;;;;;;;0.40;0.40;;;;;;;7.14;100.00;99164.09;5075275;28;20042;-58
2023/12/28 05:56:47;;;;;;;0.30;0.30;;;;;;;7.15;100.00;99186.22;5054113;28;20468;-58
2023/12/28 05:59:14;;;;;;;0.40;0.40;;;;;;;7.16;100.00;99166.50;5083718;28;20500;-58
2023/12/28 06:01:45;;;;;;;0.40;0.40;;;;;;;7.12;100.00;99168.81;5090834;28;20090;-58
2023/12/28 06:04:12;;;;;;;0.40;0.40;;;;;;;7.15;100.00;99178.22;5095416;28;20168;-58
2023/12/28 06:06:39;;;;;;;0.35;0.35;;;;;;;7.18;100.00;99175.91;5092360;28;20484;-58
2023/12/28 06:09:08;;;;;;;0.30;0.30;;;;;;;7.15;100.00;99175.56;5091289;28;20124;-58
2023/12/28 06:11:35;;;;;;;0.28;0.28;;;;;;;7.16;100.00;99171.84;5095377;28;20472;-58
2023/12/28 06:14:02;;;;;;;0.30;0.30;;;;;;;7.11;100.00;99184.00;5084989;28;20500;-58
2023/12/28 06:16:32;;;;;;;0.40;0.40;;;;;;;7.11;100.00;99185.84;5090089;28;20176;-58
2023/12/28 06:19:00;;;;;;;0.30;0.30;;;;;;;7.25;100.00;99175.84;5094777;28;20133;-58
2023/12/28 06:21:28;;;;;;;0.40;0.40;;;;;;;7.15;100.00;99188.88;5087998;28;20067;-58
2023/12/28 06:23:56;;;;;;;0.50;0.50;;;;;;;7.22;100.00;99190.44;5074937;28;20049;-58
2023/12/28 06:26:24;;;;;;;0.38;0.38;;;;;;;7.16;100.00;99201.16;5073023;28;20501;-58
2023/12/28 06:28:51;;;;;;;0.30;0.30;;;;;;;7.27;100.00;99213.78;5093888;28;20102;-58
2023/12/28 06:31:18;;;;;;;0.30;0.30;;;;;;;7.23;100.00;99207.25;5086827;28;20066;-58
2023/12/28 06:33:45;;;;;;;0.30;0.30;;;;;;;7.25;100.00;99194.53;5085250;28;20040;-58
2023/12/28 06:36:13;;;;;;;0.30;0.30;;;;;;;7.28;100.00;99194.06;5088853;28;20537;-58
2023/12/28 06:38:40;;;;;;;0.30;0.30;;;;;;;7.33;100.00;99204.88;5092211;28;20043;-58
2023/12/28 06:41:13;;;;;;;0.30;0.30;;;;;;;7.38;100.00;99205.03;5095073;28;20046;-58
2023/12/28 06:43:41;;;;;;;0.40;0.40;;;;;;;7.38;100.00;99207.69;5091982;28;20040;-58
2023/12/28 06:46:08;;;;;;;0.30;0.30;;;;;;;7.33;100.00;99197.69;5095912;28;20052;-58
2023/12/28 06:48:35;;;;;;;0.30;0.30;;;;;;;7.34;100.00;99204.66;5096939;28;20048;-58
2023/12/28 06:51:03;;;;;;;0.30;0.30;;;;;;;7.30;100.00;99219.47;5095006;28;20128;-58
2023/12/28 06:53:30;;;;;;;0.30;0.30;;;;;;;7.35;100.00;99205.47;5091965;28;21071;-58
2023/12/28 06:55:57;;;;;;;0.30;0.30;;;;;;;7.38;100.00;99223.69;5080745;28;20053;-58
2023/12/28 06:58:24;;;;;;;0.40;0.40;;;;;;;7.31;100.00;99220.28;5099580;28;20989;-58
2023/12/28 07:00:52;;;;;;;0.45;0.45;;;;;;;7.42;100.00;99226.75;5069793;28;20876;-58
2023/12/28 07:03:19;;;;;;;0.30;0.30;;;;;;;7.37;100.00;99235.41;5097444;28;20059;-58
2023/12/28 07:05:46;;;;;;;0.38;0.38;;;;;;;7.37;100.00;99235.41;5093075;28;20042;-58
2023/12/28 07:08:13;;;;;;;0.20;0.20;;;;;;;7.23;100.00;99225.91;5094948;28;20046;-58
2023/12/28 07:10:40;;;;;;;0.30;0.30;;;;;;;7.26;100.00;99234.28;5099164;28;20059;-58
2023/12/28 07:13:08;;;;;;;0.32;0.32;;;;;;;7.31;100.00;99237.13;5078105;28;20264;-58
2023/12/28 07:15:35;;;;;;;0.40;0.40;;;;;;;7.37;100.00;99234.59;5086475;28;20046;-58
2023/12/28 07:18:04;;;;;;;0.40;0.40;;;;;;;7.34;100.00;99235.84;5092936;28;20054;-58
2023/12/28 07:20:31;;;;;;;0.40;0.40;;;;;;;7.35;100.00;99243.63;5090495;28;20131;-58
2023/12/28 07:22:58;;;;;;;0.25;0.25;;;;;;;7.35;100.00;99248.13;5096234;28;20451;-59
2023/12/28 07:25:25;;;;;;;0.35;0.35;;;;;;;7.38;100.00;99249.56;5088459;28;20478;-58
2023/12/28 07:27:52;;;;;;;0.30;0.30;;;;;;;7.29;100.00;99243.72;5088278;28;20075;-58
2023/12/28 07:30:19;;;;;;;0.30;0.30;;;;;;;7.39;100.00;99252.00;5089921;28;20071;-58
2023/12/28 07:32:46;;;;;;;0.30;0.30;;;;;;;7.40;100.00;99258.16;5094935;28;20191;-59
2023/12/28 07:35:16;;;;;;;0.20;0.20;;;;;;;7.38;100.00;99246.88;5084551;28;20044;-59
2023/12/28 07:37:44;;;;;;;0.40;0.40;;;;;;;7.36;100.00;99255.09;5099699;28;20047;-59
2023/12/28 07:40:12;;;;;;;0.30;0.30;;;;;;;7.36;100.00;99249.75;5080845;28;22564;-59
2023/12/28 07:42:39;;;;;;;0.22;0.22;;;;;;;7.29;100.00;99251.69;5070209;28;20074;-59
2023/12/28 07:45:07;;;;;;;0.30;0.30;;;;;;;7.32;100.00;99251.25;5098498;28;20153;-59
2023/12/28 07:47:34;;;;;;;0.32;0.32;;;;;;;7.37;100.00;99253.25;5093717;28;20565;-59
2023/12/28 07:50:02;;;;;;;0.30;0.30;;;;;;;7.39;100.00;99261.84;5097064;28;20490;-59
2023/12/28 07:52:30;;;;;;;0.30;0.30;;;;;;;7.45;100.00;99259.09;5076360;28;20169;-59
2023/12/28 07:54:58;;;;;;;0.30;0.30;;;;;;;7.48;100.00;99250.66;5077218;28;20035;-59
2023/12/28 07:57:25;;;;;;;0.30;0.30;;;;;;;7.56;100.00;99255.72;5090096;28;20081;-58
2023/12/28 07:59:52;;;;;;;0.30;0.30;;;;;;;7.48;100.00;99258.66;5091998;28;20417;-59
2023/12/28 08:02:20;;;;;;;0.20;0.20;;;;;;;7.60;100.00;99266.75;5094420;28;20139;-59
2023/12/28 08:04:50;;;;;;;0.40;0.40;;;;;;;7.64;100.00;99267.94;5096521;28;20039;-59
2023/12/28 08:07:17;;;;;;;0.20;0.20;;;;;;;7.65;100.00;99269.56;5096178;28;20505;-59
2023/12/28 08:09:45;;;;;;;0.20;0.20;;;;;;;7.72;100.00;99266.84;5092655;28;20550;-59
2023/12/28 08:12:12;;;;;;;0.30;0.30;;;;;;;7.64;100.00;99264.44;5091950;28;20036;-59
2023/12/28 08:14:39;;;;;;;0.30;0.30;;;;;;;7.68;100.00;99268.31;5093110;28;20916;-59
2023/12/28 08:17:06;;;;;;;0.22;0.22;;;;;;;7.90;100.00;99266.81;5092539;28;20047;-59
2023/12/28 08:19:35;;;;;;;0.30;0.30;;;;;;;7.81;100.00;99286.81;5092851;28;20105;-59
2023/12/28 08:22:02;;;;;;;0.30;0.30;;;;;;;7.86;100.00;99287.00;5096112;28;20047;-59
2023/12/28 08:24:29;;;;;;;0.40;0.40;;;;;;;7.83;100.00;99292.75;5076397;28;20584;-59
2023/12/28 08:26:59;;;;;;;0.30;0.30;;;;;;;7.76;100.00;99292.00;5090287;28;20477;-59
2023/12/28 08:29:26;;;;;;;0.30;0.30;;;;;;;7.88;100.00;99287.56;5094026;28;20165;-59
2023/12/28 08:31:56;;;;;;;0.20;0.20;;;;;;;7.85;100.00;99280.00;5094564;28;20051;-59
2023/12/28 08:34:23;;;;;;;0.30;0.30;;;;;;;7.80;100.00;99285.19;5093950;28;20541;-59
2023/12/28 08:36:50;;;;;;;0.30;0.30;;;;;;;7.92;100.00;99280.75;5070233;28;20135;-59
2023/12/28 08:39:17;;;;;;;0.22;0.22;;;;;;;8.00;100.00;99287.63;5074921;28;20046;-60
2023/12/28 08:41:44;;;;;;;0.30;0.30;;;;;;;7.98;100.00;99290.53;5070188;28;20044;-59
2023/12/28 08:44:12;;;;;;;0.30;0.30;;;;;;;8.01;100.00;99294.59;5092087;28;20538;-60
2023/12/28 08:46:39;;;;;;;0.30;0.30;;;;;;;8.03;100.00;99297.88;5091386;28;20556;-59
2023/12/28 08:49:06;;;;;;;0.40;0.40;;;;;;;8.04;100.00;99293.34;5092058;28;20440;-59
2023/12/28 08:51:33;;;;;;;0.30;0.30;;;;;;;8.16;100.00;99305.72;5098493;28;20048;-59
2023/12/28 08:54:00;;;;;;;0.30;0.30;;;;;;;8.24;100.00;99299.25;5097223;28;20042;-59
2023/12/28 08:56:27;;;;;;;0.30;0.30;;;;;;;8.16;100.00;99312.91;5083176;28;20056;-59
2023/12/28 08:58:55;;;;;;;0.30;0.30;;;;;;;8.19;100.00;99307.13;5091789;28;20542;-59
2023/12/28 09:01:25;;;;;;;0.32;0.32;;;;;;;8.32;100.00;99312.28;5091956;28;20190;-59
2023/12/28 09:03:53;;;;;;;0.40;0.40;;;;;;;8.34;100.00;99320.09;5090220;28;20067;-59
2023/12/28 09:06:22;;;;;;;0.30;0.30;;;;;;;8.39;100.00;99323.75;5085653;28;20150;-59
2023/12/28 09:08:50;;;;;;;0.20;0.20;;;;;;;8.39;100.00;99322.91;5094652;28;20663;-59
2023/12/28 09:11:18;;;;;;;0.30;0.30;;;;;;;8.43;100.00;99319.56;5085040;28;20476;-60
2023/12/28 09:13:45;;;;;;;0.30;0.30;;;;;;;8.42;100.00;99322.47;5070064;28;20117;-60
2023/12/28 09:16:12;;;;;;;0.25;0.25;;;;;;;8.49;100.00;99311.72;5090941;28;20359;-59
2023/12/28 09:18:41;;;;;;;0.30;0.30;;;;;;;8.40;100.00;99321.88;5085087;28;20052;-59
2023/12/28 09:21:08;;;;;;;0.30;0.30;;;;;;;8.41;100.00;99328.84;5085932;28;20373;-60
2023/12/28 09:23:35;;;;;;;0.22;0.22;;;;;;;8.42;100.00;99328.63;5087604;28;20473;-59
2023/12/28 09:26:04;;;;;;;0.30;0.30;;;;;;;8.50;100.00;99338.19;5094876;28;20059;-59
2023/12/28 09:28:31;;;;;;;0.28;0.28;;;;;;;8.57;100.00;99335.44;5094087;28;20036;-60
2023/12/28 09:30:58;;;;;;;0.30;0.30;;;;;;;8.56;100.00;99331.94;5086007;28;20061;-60
2023/12/28 09:33:27;;;;;;;0.25;0.25;;;;;;;8.60;100.00;99333.09;5091630;28;20079;-57
2023/12/28 09:35:56;;;;;;;0.38;0.38;;;;;;;8.60;100.00;99318.94;5083078;28;20483;-57
2023/12/28 09:38:23;;;;;;;0.30;0.30;;;;;;;8.53;100.00;99318.22;5092538;28;20227;-60
2023/12/28 09:40:51;;;;;;;0.20;0.20;;;;;;;8.62;100.00;99312.31;5089777;28;20043;-59
2023/12/28 09:43:22;;;;;;;0.40;0.40;;;;;;;8.68;100.00;99310.59;5089936;28;20158;-59
2023/12/28 09:45:49;;;;;;;0.38;0.38;;;;;;;8.50;100.00;99319.47;5087620;28;20200;-59
2023/12/28 09:48:16;;;;;;;0.22;0.22;;;;;;;8.64;100.00;99320.13;5096240;28;20142;-59
2023/12/28 09:50:43;;;;;;;0.30;0.30;;;;;;;8.69;100.00;99322.13;5092221;28;20073;-59
2023/12/28 09:53:13;;;;;;;0.30;0.30;;;;;;;8.75;100.00;99326.53;5092986;28;20043;-59
2023/12/28 09:55:40;;;;;;;0.30;0.30;;;;;;;8.91;100.00;99322.38;5087240;28;20135;-59
2023/12/28 09:58:07;;;;;;;0.30;0.30;;;;;;;8.93;100.00;99318.44;5096032;28;20664;-59
2023/12/28 10:00:34;;;;;;;0.30;0.30;;;;;;;8.99;100.00;99325.56;5088565;28;20055;-59
2023/12/28 10:03:02;;;;;;;0.30;0.30;;;;;;;8.91;100.00;99325.06;5091043;28;20160;-59
2023/12/28 10:05:30;;;;;;;0.30;0.30;;;;;;;8.98;100.00;99320.41;5090323;28;20039;-59
2023/12/28 10:07:57;;;;;;;0.20;0.20;;;;;;;9.13;100.00;99328.81;5092881;28;20046;-59
2023/12/28 10:10:25;;;;;;;0.30;0.30;;;;;;;9.06;100.00;99333.44;5093611;28;20142;-59
2023/12/28 10:12:52;;;;;;;0.30;0.30;;;;;;;9.01;100.00;99338.66;5086942;28;20039;-59
2023/12/28 10:15:19;;;;;;;0.40;0.40;;;;;;;9.09;100.00;99330.34;5094865;28;20558;-59
2023/12/28 10:17:47;;;;;;;0.28;0.28;;;;;;;9.23;100.00;99337.09;5093206;28;20613;-60
2023/12/28 10:20:15;;;;;;;0.20;0.20;;;;;;;9.03;100.00;99333.91;5090979;28;20044;-60
2023/12/28 10:22:42;;;;;;;0.20;0.20;;;;;;;9.11;100.00;99325.59;5091987;28;20468;-59
2023/12/28 10:25:09;;;;;;;0.20;0.20;;;;;;;9.14;100.00;99335.81;5097591;28;20315;-59
2023/12/28 10:27:42;;;;;;;0.30;0.30;;;;;;;9.33;100.00;99330.34;5099065;28;20461;-59
2023/12/28 10:30:09;;;;;;;0.30;0.30;;;;;;;9.46;100.00;99332.78;5089268;28;20377;-59
2023/12/28 10:32:37;;;;;;;0.20;0.20;;;;;;;9.35;100.00;99336.28;5097416;28;20043;-59
2023/12/28 10:35:06;;;;;;;0.40;0.40;;;;;;;9.36;100.00;99341.41;5091963;28;20451;-59
2023/12/28 10:37:33;;;;;;;0.30;0.30;;;;;;;9.37;100.00;99340.38;5097341;28;20470;-59
2023/12/28 10:40:01;;;;;;;0.20;0.20;;;;;;;9.48;100.00;99338.72;5069472;28;20046;-59
2023/12/28 10:42:30;;;;;;;0.30;0.30;;;;;;;9.45;100.00;99331.19;5092688;28;20093;-59
2023/12/28 10:45:04;;;;;;;0.20;0.20;;;;;;;9.54;100.00;99329.78;5099460;28;20051;-59
2023/12/28 10:47:32;;;;;;;0.30;0.30;;;;;;;9.53;99.99;99341.53;5096170;28;20503;-59
2023/12/28 10:50:00;;;;;;;0.30;0.30;;;;;;;9.55;100.00;99342.09;5102345;28;20039;-59
2023/12/28 10:52:28;;;;;;;0.28;0.28;;;;;;;9.53;100.00;99346.88;5094972;28;20507;-59
2023/12/28 10:54:58;;;;;;;0.20;0.20;;;;;;;9.48;100.00;99328.03;5096381;28;20280;-59
2023/12/28 10:57:32;;;;;;;0.30;0.30;;;;;;;9.51;100.00;99322.25;5101392;28;20051;-59
2023/12/28 11:00:04;;;;;;;0.20;0.20;;;;;;;9.43;100.00;99314.53;5099279;28;20047;-59
2023/12/28 11:02:36;;;;;;;0.30;0.30;;;;;;;9.42;100.00;99311.06;5096231;28;20555;-59
2023/12/28 11:05:05;;;;;;;0.30;0.30;;;;;;;9.45;100.00;99307.09;5091761;28;20043;-59
2023/12/28 11:07:33;;;;;;;0.30;0.30;;;;;;;9.45;100.00;99315.94;5100683;28;20048;-59
2023/12/28 11:10:00;;;;;;;0.30;0.30;;;;;;;9.56;100.00;99306.28;5095756;28;20618;-59
2023/12/28 11:12:27;;;;;;;0.28;0.28;;;;;;;9.62;99.08;99304.53;5093978;28;20116;-59
2023/12/28 11:14:54;;;;;;;0.30;0.30;;;;;;;9.78;97.45;99303.00;5098668;28;20043;-59
2023/12/28 11:17:24;;;;;;;0.20;0.20;;;;;;;9.72;97.48;99308.25;5098761;28;20315;-59
2023/12/28 11:19:53;;;;;;;0.20;0.20;;;;;;;9.82;98.98;99291.59;5096109;28;20052;-59
2023/12/28 11:22:20;;;;;;;0.30;0.30;;;;;;;9.67;97.77;99292.06;5093760;28;20465;-59
2023/12/28 11:24:47;;;;;;;0.30;0.30;;;;;;;9.60;100.00;99296.72;5096003;28;20040;-59
2023/12/28 11:27:14;;;;;;;0.40;0.40;;;;;;;9.57;97.67;99278.47;5096601;28;20149;-59
2023/12/28 11:29:43;;;;;;;0.20;0.20;;;;;;;9.53;97.77;99285.34;5078162;28;20062;-59
2023/12/28 11:32:10;;;;;;;0.20;0.20;;;;;;;9.56;97.74;99274.19;5097771;28;20040;-59
2023/12/28 11:34:39;;;;;;;0.30;0.30;;;;;;;9.56;97.13;99279.53;5094605;28;20087;-59
2023/12/28 11:37:08;;;;;;;0.20;0.20;;;;;;;9.52;97.04;99274.88;5090862;28;20120;-59